Time;durP1;ratioP1;P1;durP2;ratioP2;P2;SDS_P1;SDS_P2;PMS_P1;PMS_P2;Temp;Humidity;BMP_temperature;BMP_pressure;BME280_temperature;BME280_humidity;BME280_pressure;Samples;Min_cycle;Max_cycle;Signal;HPM_P1;HPM_P2
2021/09/02 00:00:55;;;;;;;4.95;4.07;;;;;;;21.14;54.63;102991.72;5135129;27;20023;-76
2021/09/02 00:03:20;;;;;;;4.85;3.90;;;;;;;21.13;54.82;102988.22;5133655;27;20034;-75
2021/09/02 00:05:46;;;;;;;4.28;3.75;;;;;;;21.14;54.87;102983.84;5099916;27;20030;-76
2021/09/02 00:08:11;;;;;;;5.28;3.90;;;;;;;21.14;54.76;102987.38;5116646;27;20473;-74
2021/09/02 00:10:37;;;;;;;6.82;4.10;;;;;;;21.14;54.83;102989.09;5134937;27;20039;-74
2021/09/02 00:13:02;;;;;;;6.55;3.90;;;;;;;21.13;54.56;102988.22;5134710;27;20047;-75
2021/09/02 00:15:28;;;;;;;6.28;4.00;;;;;;;21.14;54.90;102990.00;5133438;27;20061;-75
2021/09/02 00:17:53;;;;;;;4.15;3.75;;;;;;;21.13;54.94;102985.59;5133567;27;20039;-76
2021/09/02 00:20:18;;;;;;;4.97;3.58;;;;;;;21.14;54.88;102982.13;5133667;27;20035;-75
2021/09/02 00:22:44;;;;;;;4.43;3.80;;;;;;;21.14;54.72;102982.13;5116318;27;20534;-74
2021/09/02 00:25:10;;;;;;;4.75;3.90;;;;;;;21.14;54.79;102990.00;5133303;27;20019;-74
2021/09/02 00:27:35;;;;;;;4.60;4.03;;;;;;;21.14;54.79;102982.13;5134730;27;20461;-76
2021/09/02 00:30:01;;;;;;;4.32;3.92;;;;;;;21.14;54.67;102978.63;5116149;27;20019;-75
2021/09/02 00:32:26;;;;;;;4.18;3.50;;;;;;;21.13;54.97;102982.97;5116151;27;20031;-75
2021/09/02 00:34:52;;;;;;;4.82;3.67;;;;;;;21.14;54.71;102976.91;5133376;27;20457;-74
2021/09/02 00:37:17;;;;;;;5.68;4.18;;;;;;;21.13;54.86;102980.38;5099131;27;20038;-74
2021/09/02 00:39:43;;;;;;;6.32;3.83;;;;;;;21.14;54.75;102986.47;5133160;27;20437;-76
2021/09/02 00:42:08;;;;;;;4.70;4.18;;;;;;;21.15;54.71;102983.00;5133126;27;20035;-74
2021/09/02 00:44:36;;;;;;;5.85;3.85;;;;;;;21.16;54.56;102979.50;5116013;28;20038;-75
2021/09/02 00:47:07;;;;;;;4.65;3.83;;;;;;;21.15;54.67;102983.00;5134510;27;20051;-75
2021/09/02 00:49:33;;;;;;;4.40;3.80;;;;;;;21.15;54.71;102975.16;5134358;27;20027;-75
2021/09/02 00:52:01;;;;;;;4.10;3.50;;;;;;;21.14;54.72;102976.91;5134270;27;20027;-75
2021/09/02 00:54:26;;;;;;;4.50;3.80;;;;;;;21.14;54.70;102971.66;5134221;27;20046;-75
2021/09/02 00:56:52;;;;;;;4.43;3.72;;;;;;;21.15;54.66;102973.41;5115909;28;20469;-75
2021/09/02 00:59:17;;;;;;;5.22;4.13;;;;;;;21.14;54.77;102974.28;5134433;27;20076;-75
2021/09/02 01:01:43;;;;;;;4.00;3.53;;;;;;;21.14;54.83;102973.38;5133290;27;20500;-74
2021/09/02 01:04:08;;;;;;;4.88;4.00;;;;;;;21.14;54.79;102971.66;5133039;28;20031;-74
2021/09/02 01:06:35;;;;;;;5.45;3.65;;;;;;;21.14;54.69;102963.81;5115733;28;20473;-75
2021/09/02 01:09:01;;;;;;;4.85;3.67;;;;;;;21.15;54.85;102962.06;5135564;27;20038;-74
2021/09/02 01:11:26;;;;;;;4.47;3.50;;;;;;;21.14;54.74;102953.34;5136990;27;20142;-74
2021/09/02 01:13:52;;;;;;;6.47;3.60;;;;;;;21.14;54.56;102950.72;5137239;27;20116;-77
2021/09/02 01:16:17;;;;;;;5.03;4.03;;;;;;;21.14;54.61;102949.81;5119887;27;20083;-76
2021/09/02 01:18:42;;;;;;;5.15;3.83;;;;;;;21.14;54.55;102950.72;5137062;27;20035;-76
2021/09/02 01:21:08;;;;;;;5.13;3.95;;;;;;;21.14;54.45;102949.81;5119831;27;20031;-76
2021/09/02 01:23:40;;;;;;;3.50;3.20;;;;;;;21.14;54.64;102953.34;5138174;27;20118;-75
2021/09/02 01:26:18;;;;;;;4.35;3.65;;;;;;;21.14;54.57;102952.44;5119789;27;20033;-76
2021/09/02 01:28:45;;;;;;;4.15;3.60;;;;;;;21.14;54.61;102953.34;5138209;27;20038;-77
2021/09/02 01:31:15;;;;;;;4.25;3.60;;;;;;;21.14;54.64;102950.72;5119629;27;20020;-74
2021/09/02 01:33:45;;;;;;;4.55;3.67;;;;;;;21.15;54.53;102948.97;5136762;27;20027;-77
2021/09/02 01:36:10;;;;;;;4.70;3.72;;;;;;;21.15;54.64;102951.59;5136589;27;20026;-76
2021/09/02 01:38:36;;;;;;;5.05;3.88;;;;;;;21.14;54.37;102945.47;5138144;27;20380;-77
2021/09/02 01:41:02;;;;;;;5.20;3.70;;;;;;;21.14;54.63;102942.88;5119576;27;20076;-76
2021/09/02 01:43:27;;;;;;;5.00;4.07;;;;;;;21.14;54.56;102948.09;5136601;27;20483;-74
2021/09/02 01:45:52;;;;;;;4.22;3.78;;;;;;;21.14;54.64;102945.47;5119321;27;20054;-77
2021/09/02 01:48:18;;;;;;;4.57;3.63;;;;;;;21.14;54.62;102953.34;5119555;27;20023;-74
2021/09/02 01:50:43;;;;;;;4.72;3.85;;;;;;;21.14;54.45;102944.59;5136576;27;20038;-75
2021/09/02 01:53:14;;;;;;;4.93;3.80;;;;;;;21.13;54.62;102941.09;5137655;27;20072;-76
2021/09/02 01:55:40;;;;;;;6.18;4.28;;;;;;;21.14;54.53;102934.09;5119374;27;20060;-76
2021/09/02 01:58:06;;;;;;;4.82;3.50;;;;;;;21.15;54.29;102941.13;5137497;27;20030;-74
2021/09/02 02:00:32;;;;;;;5.75;3.72;;;;;;;21.14;54.68;102940.25;5119100;27;20084;-75
2021/09/02 02:02:57;;;;;;;5.10;3.58;;;;;;;21.15;54.46;102943.75;5136351;27;20403;-76
2021/09/02 02:05:23;;;;;;;4.65;3.65;;;;;;;21.14;54.20;102936.72;5136299;27;20072;-76
2021/09/02 02:07:48;;;;;;;6.05;3.80;;;;;;;21.13;54.39;102935.84;5136718;27;20031;-76
2021/09/02 02:10:17;;;;;;;4.63;3.83;;;;;;;21.14;54.32;102942.88;5137388;27;20027;-74
2021/09/02 02:12:43;;;;;;;5.88;3.83;;;;;;;21.14;54.54;102932.41;5137021;27;20047;-75
2021/09/02 02:15:10;;;;;;;5.03;3.83;;;;;;;21.14;54.49;102932.41;5118974;27;20028;-74
2021/09/02 02:17:35;;;;;;;5.43;3.75;;;;;;;21.14;54.49;102927.16;5137185;27;20102;-75
2021/09/02 02:20:01;;;;;;;4.57;3.70;;;;;;;21.14;54.31;102924.53;5135606;27;20069;-76
2021/09/02 02:22:26;;;;;;;4.50;3.97;;;;;;;21.15;54.43;102921.03;5135833;27;20035;-74
2021/09/02 02:24:52;;;;;;;4.20;3.80;;;;;;;21.14;54.38;102927.16;5118520;27;20075;-75
2021/09/02 02:27:18;;;;;;;4.57;3.85;;;;;;;21.14;54.17;102927.16;5118440;27;20035;-75
2021/09/02 02:29:43;;;;;;;4.80;4.00;;;;;;;21.14;54.42;102921.91;5118736;27;20484;-74
2021/09/02 02:32:08;;;;;;;5.43;4.03;;;;;;;21.14;54.30;102927.16;5135616;27;20031;-74
2021/09/02 02:34:34;;;;;;;5.15;3.92;;;;;;;21.14;54.44;102932.41;5135671;27;20042;-75
2021/09/02 02:36:59;;;;;;;4.43;3.88;;;;;;;21.14;54.50;102929.78;5135444;27;20026;-75
2021/09/02 02:39:25;;;;;;;4.70;3.85;;;;;;;21.15;54.29;102933.25;5118471;27;20051;-76
2021/09/02 02:41:50;;;;;;;4.97;4.15;;;;;;;21.14;54.37;102929.78;5118692;27;20027;-76
2021/09/02 02:44:16;;;;;;;4.95;4.00;;;;;;;21.15;54.25;102928.03;5135511;27;20042;-76
2021/09/02 02:46:41;;;;;;;5.32;4.10;;;;;;;21.15;54.23;102930.66;5118258;27;20063;-76
2021/09/02 02:49:07;;;;;;;5.40;3.80;;;;;;;21.15;54.45;102925.41;5118564;27;20043;-75
2021/09/02 02:51:34;;;;;;;5.60;3.95;;;;;;;21.14;54.24;102924.53;5136667;27;20028;-75
2021/09/02 02:54:00;;;;;;;5.05;4.13;;;;;;;21.14;54.45;102923.63;5136382;27;20049;-75
2021/09/02 02:56:25;;;;;;;5.28;3.83;;;;;;;21.13;54.27;102929.75;5118257;27;20075;-75
2021/09/02 02:58:50;;;;;;;5.50;3.80;;;;;;;21.14;54.24;102918.41;5135280;27;20077;-74
2021/09/02 03:01:16;;;;;;;4.75;4.25;;;;;;;21.13;54.34;102929.75;5135189;27;20035;-74
2021/09/02 03:03:41;;;;;;;5.68;3.85;;;;;;;21.14;54.52;102923.63;5117984;27;20110;-74
2021/09/02 03:06:09;;;;;;;6.88;4.15;;;;;;;21.13;54.33;102925.38;5117785;27;20027;-75
2021/09/02 03:08:34;;;;;;;5.00;4.13;;;;;;;21.13;54.20;102917.53;5134959;27;20050;-75
2021/09/02 03:10:59;;;;;;;5.88;4.20;;;;;;;21.14;54.38;102929.78;5117522;27;20552;-77
2021/09/02 03:13:25;;;;;;;6.78;4.30;;;;;;;21.13;54.64;102930.63;5117404;27;20034;-75
2021/09/02 03:15:50;;;;;;;5.78;4.32;;;;;;;21.13;54.49;102927.13;5134646;27;20035;-75
2021/09/02 03:18:16;;;;;;;5.07;4.13;;;;;;;21.14;54.27;102924.53;5117618;27;20080;-76
2021/09/02 03:20:41;;;;;;;6.63;4.65;;;;;;;21.13;54.40;102916.66;5117846;27;20466;-75
2021/09/02 03:23:06;;;;;;;4.97;3.90;;;;;;;21.13;54.33;102914.91;5134885;27;20034;-76
2021/09/02 03:25:32;;;;;;;5.75;4.38;;;;;;;21.13;54.25;102920.16;5134522;27;20038;-75
2021/09/02 03:27:58;;;;;;;5.13;3.97;;;;;;;21.13;54.40;102922.78;5134706;27;20035;-77
2021/09/02 03:30:23;;;;;;;5.30;4.10;;;;;;;21.13;54.20;102907.06;5133938;27;20430;-74
2021/09/02 03:32:48;;;;;;;5.70;3.88;;;;;;;21.14;54.15;102907.94;5134228;27;20080;-76
2021/09/02 03:35:14;;;;;;;7.18;4.13;;;;;;;21.13;54.16;102909.69;5117236;27;20039;-77
2021/09/02 03:37:40;;;;;;;4.85;3.72;;;;;;;21.15;53.96;102905.34;5117150;27;20489;-76
2021/09/02 03:40:06;;;;;;;7.65;4.68;;;;;;;21.14;54.14;102914.06;5134628;27;20393;-76
2021/09/02 03:42:31;;;;;;;6.68;4.40;;;;;;;21.16;54.32;102906.19;5134147;27;20023;-75
2021/09/02 03:44:59;;;;;;;5.20;3.90;;;;;;;21.15;54.32;102905.34;5117009;27;20023;-74
2021/09/02 03:47:25;;;;;;;6.00;4.03;;;;;;;21.15;54.14;102909.69;5117452;27;20066;-75
2021/09/02 03:49:50;;;;;;;6.00;4.57;;;;;;;21.17;54.06;102910.59;5117191;27;20062;-75
2021/09/02 03:52:15;;;;;;;6.35;4.25;;;;;;;21.16;54.22;102914.97;5117019;27;20105;-74
2021/09/02 03:54:41;;;;;;;6.05;4.20;;;;;;;21.15;54.24;102907.09;5117025;27;20027;-75
2021/09/02 03:57:06;;;;;;;5.53;3.92;;;;;;;21.16;54.25;102906.19;5134360;27;20084;-76
2021/09/02 03:59:32;;;;;;;6.32;3.63;;;;;;;21.15;54.06;102907.94;5117049;27;20035;-75
2021/09/02 04:01:57;;;;;;;5.55;4.00;;;;;;;21.14;54.08;102906.22;5133859;27;20027;-74
2021/09/02 04:04:22;;;;;;;5.22;4.13;;;;;;;21.15;54.07;102905.34;5116680;27;20030;-75
2021/09/02 04:06:48;;;;;;;5.60;4.45;;;;;;;21.15;53.99;102902.72;5133956;27;20030;-75
2021/09/02 04:09:14;;;;;;;5.07;4.00;;;;;;;21.15;54.10;102899.22;5135031;27;20031;-76
2021/09/02 04:11:39;;;;;;;5.57;4.15;;;;;;;21.15;53.92;102904.47;5116404;27;20207;-74
2021/09/02 04:14:04;;;;;;;6.43;4.63;;;;;;;21.13;53.70;102901.81;5134720;27;20062;-74
2021/09/02 04:16:30;;;;;;;5.28;3.95;;;;;;;21.13;53.83;102893.09;5133620;27;20129;-76
2021/09/02 04:18:55;;;;;;;5.78;4.43;;;;;;;21.14;54.20;102897.47;5133827;27;20027;-74
2021/09/02 04:21:21;;;;;;;7.72;4.55;;;;;;;21.14;54.15;102898.34;5116529;27;20081;-75
2021/09/02 04:23:48;;;;;;;5.72;4.20;;;;;;;21.13;54.06;102903.56;5134884;27;20125;-76
2021/09/02 04:26:13;;;;;;;6.22;4.60;;;;;;;21.13;54.21;102898.34;5133566;27;20019;-77
2021/09/02 04:28:39;;;;;;;7.93;4.50;;;;;;;21.12;54.31;102905.31;5133572;27;20473;-75
2021/09/02 04:31:04;;;;;;;6.45;4.40;;;;;;;21.12;54.14;102907.03;5116274;27;20042;-74
2021/09/02 04:33:30;;;;;;;5.40;4.00;;;;;;;21.13;54.26;102900.94;5133385;27;20038;-74
2021/09/02 04:35:55;;;;;;;7.25;4.53;;;;;;;21.13;54.19;102907.06;5133426;27;20473;-74
2021/09/02 04:38:21;;;;;;;5.80;4.30;;;;;;;21.13;54.02;102900.94;5134700;27;20034;-75
2021/09/02 04:40:47;;;;;;;6.55;4.50;;;;;;;21.13;54.17;102900.94;5133271;27;20114;-76
2021/09/02 04:43:14;;;;;;;7.20;4.57;;;;;;;21.11;54.08;102906.16;5133731;27;20487;-77
2021/09/02 04:45:39;;;;;;;9.70;4.38;;;;;;;21.13;54.11;102908.81;5133344;27;20465;-75
2021/09/02 04:48:15;;;;;;;6.38;4.93;;;;;;;21.11;53.98;102895.69;5116211;28;20122;-76
2021/09/02 04:50:43;;;;;;;6.47;4.35;;;;;;;21.12;53.93;102897.47;5133184;27;20396;-74
2021/09/02 04:53:08;;;;;;;6.18;4.30;;;;;;;21.12;54.20;102889.63;5134469;27;20023;-74
2021/09/02 04:55:34;;;;;;;7.22;4.95;;;;;;;21.11;53.65;102900.94;5133143;27;20477;-75
2021/09/02 04:58:03;;;;;;;6.80;4.78;;;;;;;21.12;53.90;102899.19;5115879;28;20110;-74
2021/09/02 05:00:29;;;;;;;5.85;4.30;;;;;;;21.12;54.18;102901.81;5132955;28;20043;-75
2021/09/02 05:02:54;;;;;;;6.10;4.38;;;;;;;21.12;54.05;102896.56;5116004;28;20100;-76
2021/09/02 05:05:20;;;;;;;6.70;4.53;;;;;;;21.11;53.87;102900.94;5132923;28;20071;-76
2021/09/02 05:07:45;;;;;;;7.95;4.68;;;;;;;21.11;53.74;102906.16;5099043;28;20035;-75
2021/09/02 05:10:11;;;;;;;8.15;5.03;;;;;;;21.12;54.25;102907.03;5115828;28;20031;-75
2021/09/02 05:12:36;;;;;;;22.40;9.55;;;;;;;21.14;54.22;102913.16;5132784;28;20039;-76
2021/09/02 05:15:02;;;;;;;22.77;9.85;;;;;;;21.14;54.53;102919.31;5134217;27;20488;-75
2021/09/02 05:17:27;;;;;;;23.60;9.80;;;;;;;21.14;54.57;102919.31;5132878;27;20438;-75
2021/09/02 05:19:53;;;;;;;22.73;8.90;;;;;;;21.12;54.34;102913.19;5132859;27;20043;-76
2021/09/02 05:22:18;;;;;;;26.63;9.40;;;;;;;21.10;54.08;102922.75;5098636;28;20027;-74
2021/09/02 05:24:43;;;;;;;19.73;9.02;;;;;;;21.06;54.71;102923.59;5098864;28;20062;-76
2021/09/02 05:27:09;;;;;;;20.42;8.63;;;;;;;20.99;54.60;102927.03;5133025;28;20027;-77
2021/09/02 05:29:34;;;;;;;16.63;8.63;;;;;;;20.92;54.37;102928.69;5132702;28;20027;-76
2021/09/02 05:31:59;;;;;;;16.77;8.23;;;;;;;20.89;54.38;102925.16;5115675;28;20027;-74
2021/09/02 05:34:26;;;;;;;17.70;8.52;;;;;;;20.83;54.37;102930.34;5132620;28;20031;-75
2021/09/02 05:36:52;;;;;;;16.50;8.68;;;;;;;20.80;54.13;102927.69;5115643;28;20027;-75
2021/09/02 05:39:17;;;;;;;19.17;10.00;;;;;;;20.75;53.88;102927.63;5098674;28;20572;-74
2021/09/02 05:41:42;;;;;;;17.08;10.02;;;;;;;20.69;53.77;102923.22;5115405;28;20023;-76
2021/09/02 05:44:11;;;;;;;17.48;9.93;;;;;;;20.70;53.92;102930.19;5132688;28;20384;-77
2021/09/02 05:46:37;;;;;;;16.50;10.90;;;;;;;20.66;53.55;102917.94;5115961;28;20088;-73
2021/09/02 05:49:03;;;;;;;21.52;10.95;;;;;;;20.64;53.57;102918.78;5115763;28;20027;-74
2021/09/02 05:51:28;;;;;;;20.90;11.25;;;;;;;20.62;53.85;102926.66;5115520;28;20362;-74
2021/09/02 05:53:53;;;;;;;20.05;11.18;;;;;;;20.63;53.57;102917.06;5133368;27;20054;-76
2021/09/02 05:56:19;;;;;;;21.27;11.20;;;;;;;20.64;53.59;102910.94;5119196;27;20027;-76
2021/09/02 05:58:44;;;;;;;18.42;10.80;;;;;;;20.65;53.40;102912.72;5119624;27;20465;-74
2021/09/02 06:01:09;;;;;;;17.55;11.05;;;;;;;20.65;53.60;102917.94;5119320;27;20031;-74
2021/09/02 06:03:35;;;;;;;18.48;11.45;;;;;;;20.67;53.31;102918.84;5118862;27;20525;-76
2021/09/02 06:06:00;;;;;;;19.70;11.05;;;;;;;20.81;52.92;102921.59;5136259;27;20027;-74
2021/09/02 06:08:25;;;;;;;23.25;11.32;;;;;;;20.91;52.54;102921.69;5101983;27;20023;-74
2021/09/02 06:10:51;;;;;;;14.77;10.32;;;;;;;20.99;52.48;102919.16;5119046;27;20019;-75
2021/09/02 06:13:16;;;;;;;15.55;9.50;;;;;;;21.04;52.77;102921.81;5119117;27;20084;-76
2021/09/02 06:15:42;;;;;;;19.50;10.70;;;;;;;21.08;52.43;102921.88;5137500;27;20034;-76
2021/09/02 06:18:10;;;;;;;20.48;10.98;;;;;;;21.09;52.66;102917.50;5137572;27;20062;-76
2021/09/02 06:20:36;;;;;;;17.23;9.48;;;;;;;21.03;52.62;102920.06;5101697;27;20034;-75
2021/09/02 06:23:03;;;;;;;17.15;9.32;;;;;;;20.96;52.95;102914.75;5118822;27;20473;-76
2021/09/02 06:25:29;;;;;;;16.20;9.15;;;;;;;20.95;52.80;102918.25;5137165;27;20034;-76
2021/09/02 06:27:54;;;;;;;12.65;9.23;;;;;;;20.98;52.93;102917.41;5118631;27;20027;-76
2021/09/02 06:30:20;;;;;;;15.93;9.43;;;;;;;20.94;52.93;102920.84;5136042;27;20107;-77
2021/09/02 06:32:45;;;;;;;13.82;8.85;;;;;;;20.91;53.00;102913.84;5118578;27;20053;-77
2021/09/02 06:35:10;;;;;;;15.43;9.23;;;;;;;20.92;53.16;102918.22;5118615;27;20388;-76
2021/09/02 06:37:36;;;;;;;18.17;9.05;;;;;;;20.89;53.10;102907.72;5118607;27;20030;-77
2021/09/02 06:40:03;;;;;;;15.80;8.82;;;;;;;20.89;52.93;102919.94;5135527;27;20113;-77
2021/09/02 06:42:29;;;;;;;16.55;8.88;;;;;;;20.88;52.94;102915.53;5135495;27;20106;-77
2021/09/02 06:44:54;;;;;;;13.52;8.63;;;;;;;20.89;53.16;102915.56;5118460;27;20473;-77
2021/09/02 06:47:20;;;;;;;14.98;9.00;;;;;;;20.88;53.16;102919.06;5136616;27;20072;-76
2021/09/02 06:49:45;;;;;;;11.90;8.10;;;;;;;20.89;53.21;102922.56;5118251;27;20039;-74
2021/09/02 06:52:10;;;;;;;14.77;8.23;;;;;;;20.87;53.04;102924.28;5117964;27;20038;-75
2021/09/02 06:54:36;;;;;;;14.13;7.97;;;;;;;20.89;53.08;102925.16;5118220;27;20031;-78
2021/09/02 06:57:01;;;;;;;13.30;7.72;;;;;;;20.92;52.99;102922.56;5101667;27;20038;-79
2021/09/02 06:59:27;;;;;;;12.90;8.40;;;;;;;20.91;52.98;102920.81;5101119;27;20569;-77
2021/09/02 07:01:52;;;;;;;11.57;7.43;;;;;;;20.87;53.04;102927.75;5118009;27;20114;-75
2021/09/02 07:04:17;;;;;;;15.93;8.80;;;;;;;20.90;53.31;102926.91;5101233;27;20030;-77
2021/09/02 07:06:43;;;;;;;12.85;7.68;;;;;;;20.87;53.04;102927.75;5117167;27;20027;-76
2021/09/02 07:09:08;;;;;;;13.98;7.95;;;;;;;20.90;53.05;102921.69;5136345;27;20031;-75
2021/09/02 07:11:33;;;;;;;11.38;7.53;;;;;;;20.91;52.93;102918.22;5117717;27;20138;-79
2021/09/02 07:13:59;;;;;;;12.65;7.70;;;;;;;20.92;53.06;102920.81;5117686;27;20051;-76
2021/09/02 07:16:25;;;;;;;12.43;7.28;;;;;;;20.93;53.25;102914.75;5136107;27;20019;-75
2021/09/02 07:18:50;;;;;;;18.80;8.95;;;;;;;20.96;53.34;102921.75;5134785;27;20083;-75
2021/09/02 07:21:15;;;;;;;20.65;9.32;;;;;;;20.92;53.24;102918.22;5136333;27;20436;-76
2021/09/02 07:23:41;;;;;;;20.02;8.80;;;;;;;20.90;53.31;102919.94;5134714;27;20019;-76
2021/09/02 07:26:07;;;;;;;15.05;8.02;;;;;;;20.95;53.41;102920.00;5136041;27;20019;-75
2021/09/02 07:28:33;;;;;;;17.80;7.97;;;;;;;20.93;53.23;102921.72;5134649;27;20030;-77
2021/09/02 07:30:58;;;;;;;15.93;7.70;;;;;;;20.95;53.27;102928.72;5135839;27;20023;-76
2021/09/02 07:33:23;;;;;;;12.80;7.63;;;;;;;20.94;53.26;102921.72;5117356;27;20088;-77
2021/09/02 07:35:49;;;;;;;16.75;7.93;;;;;;;20.95;53.13;102928.72;5117739;27;20031;-76
2021/09/02 07:38:14;;;;;;;14.65;7.53;;;;;;;20.98;53.11;102933.09;5134463;27;20136;-77
2021/09/02 07:40:40;;;;;;;17.60;8.07;;;;;;;20.96;53.09;102940.06;5117253;27;20499;-76
2021/09/02 07:43:05;;;;;;;13.23;7.20;;;;;;;20.92;53.14;102935.66;5134439;27;20027;-77
2021/09/02 07:45:31;;;;;;;16.75;7.38;;;;;;;20.97;53.00;102936.59;5117203;27;20031;-76
2021/09/02 07:47:56;;;;;;;13.60;7.13;;;;;;;21.00;53.01;102939.22;5100307;27;20031;-75
2021/09/02 07:50:22;;;;;;;12.32;7.30;;;;;;;21.02;53.21;102932.28;5134255;27;20038;-77
2021/09/02 07:52:47;;;;;;;12.13;6.85;;;;;;;21.05;53.15;102940.13;5133888;27;20050;-76
2021/09/02 07:55:12;;;;;;;12.32;7.10;;;;;;;21.04;53.02;102941.03;5134226;27;20031;-76
2021/09/02 07:57:43;;;;;;;12.63;7.03;;;;;;;21.02;52.85;102944.50;5134385;27;20038;-77
2021/09/02 08:00:09;;;;;;;12.23;6.63;;;;;;;21.04;52.81;102943.63;5135748;27;20468;-76
2021/09/02 08:02:34;;;;;;;9.98;6.63;;;;;;;21.03;52.90;102944.47;5116751;27;20034;-76
2021/09/02 08:05:00;;;;;;;12.18;6.35;;;;;;;21.05;52.91;102947.13;5116816;27;20034;-78
2021/09/02 08:07:25;;;;;;;13.07;6.72;;;;;;;21.08;52.83;102945.41;5116729;27;20030;-76
2021/09/02 08:09:51;;;;;;;11.23;6.65;;;;;;;21.05;52.89;102948.00;5135238;27;20144;-75
2021/09/02 08:12:16;;;;;;;11.85;6.68;;;;;;;21.05;52.97;102953.22;5134648;27;20104;-75
2021/09/02 08:14:42;;;;;;;12.32;6.47;;;;;;;21.08;52.66;102947.16;5133695;27;20080;-77
2021/09/02 08:17:07;;;;;;;10.57;6.40;;;;;;;21.06;52.90;102952.38;5133817;27;20157;-75
2021/09/02 08:19:32;;;;;;;9.65;6.43;;;;;;;21.04;52.61;102956.72;5133754;27;20025;-76
2021/09/02 08:21:58;;;;;;;9.38;6.03;;;;;;;21.03;53.13;102954.94;5116538;27;20068;-76
2021/09/02 08:24:23;;;;;;;9.65;5.90;;;;;;;21.04;53.05;102956.72;5116481;27;20096;-75
2021/09/02 08:26:49;;;;;;;10.48;6.35;;;;;;;21.06;52.96;102960.25;5116515;27;20027;-74
2021/09/02 08:29:14;;;;;;;9.93;5.65;;;;;;;21.09;52.94;102959.38;5134990;27;20038;-76
2021/09/02 08:31:40;;;;;;;9.82;5.70;;;;;;;21.08;52.72;102952.41;5116482;27;20060;-75
2021/09/02 08:34:05;;;;;;;8.00;5.45;;;;;;;21.10;52.96;102948.03;5133446;27;20473;-76
2021/09/02 08:36:31;;;;;;;9.70;6.32;;;;;;;21.10;52.91;102954.16;5116451;27;20031;-77
2021/09/02 08:38:56;;;;;;;8.20;5.53;;;;;;;21.13;52.93;102962.03;5116325;27;20092;-76
2021/09/02 08:41:22;;;;;;;9.13;5.82;;;;;;;21.11;52.73;102960.28;5099263;28;20068;-75
2021/09/02 08:43:48;;;;;;;9.35;5.88;;;;;;;21.09;52.86;102964.63;5133462;27;20027;-77
2021/09/02 08:46:15;;;;;;;8.13;5.30;;;;;;;21.08;52.78;102965.50;5133509;27;20027;-76
2021/09/02 08:48:48;;;;;;;8.50;5.63;;;;;;;21.07;52.71;102964.59;5133361;27;20019;-76
2021/09/02 08:51:15;;;;;;;9.52;5.38;;;;;;;21.12;52.89;102962.91;5134498;27;20023;-76
2021/09/02 08:53:42;;;;;;;7.53;5.18;;;;;;;21.10;52.64;102961.13;5099109;27;20023;-74
2021/09/02 08:56:07;;;;;;;10.10;5.57;;;;;;;21.11;52.72;102960.28;5116059;28;20035;-75
2021/09/02 08:58:33;;;;;;;6.85;4.97;;;;;;;21.14;52.70;102963.81;5116193;28;20605;-76
2021/09/02 09:00:59;;;;;;;8.93;5.30;;;;;;;21.12;52.83;102965.53;5116321;28;20031;-75
2021/09/02 09:03:26;;;;;;;10.43;5.55;;;;;;;21.13;52.69;102963.78;5116198;28;20030;-75
2021/09/02 09:05:53;;;;;;;8.82;5.15;;;;;;;21.11;52.52;102963.75;5133343;27;20027;-76
2021/09/02 09:08:18;;;;;;;9.00;5.38;;;;;;;21.10;52.59;102966.34;5115899;28;20027;-75
2021/09/02 09:10:45;;;;;;;8.48;5.30;;;;;;;21.13;52.69;102963.78;5133035;27;20031;-75
2021/09/02 09:13:11;;;;;;;9.10;5.65;;;;;;;21.14;52.81;102969.03;5134110;27;20385;-75
2021/09/02 09:15:39;;;;;;;8.43;4.78;;;;;;;21.15;52.52;102955.06;5132809;28;20072;-76
2021/09/02 09:18:18;;;;;;;9.02;4.75;;;;;;;21.22;52.72;102965.63;5132803;27;20015;-76
2021/09/02 09:20:46;;;;;;;8.32;5.22;;;;;;;21.21;52.41;102964.75;5132813;28;20051;-76
2021/09/02 09:23:11;;;;;;;11.18;4.95;;;;;;;21.22;52.86;102956.00;5134312;27;20019;-75
2021/09/02 09:25:36;;;;;;;14.02;5.47;;;;;;;21.13;59.12;102963.78;5132960;28;20099;-76
2021/09/02 09:28:02;;;;;;;11.45;5.90;;;;;;;20.94;60.37;102963.59;5098678;27;20027;-77
2021/09/02 09:30:34;;;;;;;8.70;4.90;;;;;;;20.80;57.67;102975.69;5136317;27;20023;-76
2021/09/02 09:33:07;;;;;;;9.07;5.53;;;;;;;20.74;58.12;102975.59;5136838;27;20023;-75
2021/09/02 09:35:39;;;;;;;8.40;5.35;;;;;;;20.65;58.46;102971.16;5136981;27;20389;-77
2021/09/02 09:38:07;;;;;;;10.05;5.07;;;;;;;20.62;58.49;102972.84;5138130;27;20022;-75
2021/09/02 09:40:43;;;;;;;9.82;4.93;;;;;;;20.56;58.54;102968.41;5136953;27;20031;-75
2021/09/02 09:43:23;;;;;;;8.90;5.32;;;;;;;20.61;58.83;102964.13;5137996;27;20075;-76
2021/09/02 09:45:53;;;;;;;7.88;5.10;;;;;;;20.67;58.03;102968.56;5136561;27;20027;-74
2021/09/02 09:48:21;;;;;;;7.88;5.07;;;;;;;20.66;57.20;102962.41;5136637;27;20019;-78
2021/09/02 09:51:13;;;;;;;10.85;5.18;;;;;;;20.66;57.68;102957.19;5138001;27;20051;-76
2021/09/02 09:53:40;;;;;;;10.10;4.78;;;;;;;20.67;57.88;102960.72;5136443;27;20033;-76
2021/09/02 09:56:07;;;;;;;8.48;4.75;;;;;;;20.63;57.72;102949.31;5136759;27;20029;-76
2021/09/02 09:58:33;;;;;;;9.85;4.90;;;;;;;20.64;58.10;102952.81;5119438;27;20023;-76
2021/09/02 10:01:01;;;;;;;14.27;5.07;;;;;;;20.65;57.06;102952.84;5136337;27;20037;-74
2021/09/02 10:03:29;;;;;;;7.75;4.25;;;;;;;20.67;57.43;102955.47;5136291;27;20019;-74
2021/09/02 10:05:59;;;;;;;7.53;4.88;;;;;;;20.66;58.02;102954.56;5119489;27;20110;-75
2021/09/02 10:08:26;;;;;;;7.63;4.65;;;;;;;20.68;57.00;102958.09;5137374;27;20027;-75
2021/09/02 10:10:52;;;;;;;9.07;5.00;;;;;;;20.66;56.94;102954.56;5135965;27;20038;-75
2021/09/02 10:13:19;;;;;;;8.60;4.75;;;;;;;20.68;57.72;102958.09;5135795;27;20122;-76
2021/09/02 10:15:45;;;;;;;5.85;4.38;;;;;;;20.68;57.37;102950.22;5137458;27;20023;-75
2021/09/02 10:18:10;;;;;;;8.20;4.80;;;;;;;20.69;57.79;102953.75;5136086;27;20021;-76
2021/09/02 10:20:38;;;;;;;8.43;4.45;;;;;;;20.71;57.47;102952.03;5135945;27;20027;-75
2021/09/02 10:23:05;;;;;;;9.35;4.45;;;;;;;20.70;57.16;102945.91;5135921;27;20365;-77
2021/09/02 10:25:33;;;;;;;9.25;4.82;;;;;;;20.70;57.16;102951.13;5135692;27;20031;-76
2021/09/02 10:28:03;;;;;;;9.65;5.05;;;;;;;20.72;57.29;102946.78;5135592;27;20110;-75
2021/09/02 10:30:29;;;;;;;8.52;5.03;;;;;;;20.69;57.16;102938.06;5135897;27;20121;-74
2021/09/02 10:32:57;;;;;;;7.47;4.65;;;;;;;20.71;57.29;102945.06;5135718;27;20027;-75
2021/09/02 10:35:26;;;;;;;8.98;4.38;;;;;;;20.75;56.87;102941.63;5135603;27;20084;-75
2021/09/02 10:37:53;;;;;;;9.27;4.88;;;;;;;20.74;56.98;102942.47;5136763;27;20414;-74
2021/09/02 10:40:18;;;;;;;9.45;4.43;;;;;;;20.78;57.34;102943.38;5136795;27;20027;-76
2021/09/02 10:43:00;;;;;;;6.93;4.50;;;;;;;20.78;57.05;102942.50;5136933;27;20098;-76
2021/09/02 10:45:25;;;;;;;10.30;4.80;;;;;;;20.80;56.42;102940.78;5135842;27;20050;-76
2021/09/02 10:48:18;;;;;;;7.57;5.10;;;;;;;20.81;57.08;102937.28;5135571;27;20429;-75
2021/09/02 10:50:44;;;;;;;9.20;4.82;;;;;;;20.78;57.26;102934.66;5135678;27;20027;-75
2021/09/02 10:53:18;;;;;;;6.85;4.07;;;;;;;20.78;57.14;102934.66;5135357;27;20038;-75
2021/09/02 10:55:57;;;;;;;7.05;4.70;;;;;;;20.80;56.80;102930.31;5136829;27;20031;-75
2021/09/02 10:58:49;;;;;;;7.78;4.68;;;;;;;20.80;56.87;102930.31;5118263;27;20488;-75
2021/09/02 11:01:21;;;;;;;6.65;4.25;;;;;;;20.81;56.57;102924.22;5132267;27;20035;-75
2021/09/02 11:03:47;;;;;;;7.30;4.40;;;;;;;20.84;56.83;102930.38;5135297;27;20023;-76
2021/09/02 11:06:12;;;;;;;6.60;4.30;;;;;;;20.85;56.67;102934.72;5135148;27;20034;-76
2021/09/02 11:08:38;;;;;;;6.25;4.22;;;;;;;20.88;56.94;102928.63;5118052;27;20046;-75
2021/09/02 11:11:23;;;;;;;7.38;3.92;;;;;;;20.85;57.44;102937.34;5118025;27;20029;-76
2021/09/02 11:13:54;;;;;;;5.80;4.00;;;;;;;20.84;57.67;102935.59;5135198;27;20085;-75
2021/09/02 11:16:22;;;;;;;6.35;4.13;;;;;;;20.85;57.09;102932.09;5135197;27;20464;-75
2021/09/02 11:18:50;;;;;;;5.85;4.50;;;;;;;20.84;57.64;102932.97;5135305;27;20038;-75